createdAt,value
2017-09-09T00:00:08.042Z,10.81
2017-09-09T00:02:35.817Z,10.87
2017-09-09T00:05:03.609Z,10.69
2017-09-09T00:07:31.343Z,10.63
2017-09-09T00:09:59.122Z,10.78
2017-09-09T00:12:26.831Z,10.79
2017-09-09T00:14:54.618Z,10.87
2017-09-09T00:17:22.486Z,10.64
2017-09-09T00:19:50.239Z,10.57
2017-09-09T00:22:17.996Z,10.47
2017-09-09T00:24:45.807Z,10.35
2017-09-09T00:27:14.629Z,10.40
2017-09-09T00:29:42.479Z,10.35
2017-09-09T00:32:10.166Z,10.36
2017-09-09T00:34:37.929Z,10.35
2017-09-09T00:37:05.647Z,10.22
2017-09-09T00:39:33.426Z,10.21
2017-09-09T00:42:01.177Z,10.29
2017-09-09T00:44:28.943Z,10.41
2017-09-09T00:46:56.731Z,10.38
2017-09-09T00:49:24.415Z,10.32
2017-09-09T00:51:52.301Z,10.47
2017-09-09T00:54:20.164Z,10.47
2017-09-09T00:56:47.963Z,10.48
2017-09-09T00:59:15.772Z,10.43
2017-09-09T01:01:43.485Z,10.27
2017-09-09T01:04:11.315Z,10.31
2017-09-09T01:06:39.082Z,10.32
2017-09-09T01:09:07.805Z,10.38
2017-09-09T01:11:35.685Z,10.38
2017-09-09T01:14:03.442Z,10.44
2017-09-09T01:16:31.218Z,10.31
2017-09-09T01:18:58.983Z,10.24
2017-09-09T01:21:26.688Z,10.16
2017-09-09T01:23:54.432Z,10.03
2017-09-09T01:26:22.242Z,9.81
2017-09-09T01:28:50.004Z,9.85
2017-09-09T01:31:17.676Z,9.93
2017-09-09T01:33:45.406Z,9.97
2017-09-09T01:36:13.117Z,10.02
2017-09-09T01:38:40.896Z,10.11
2017-09-09T01:41:08.613Z,10.00
2017-09-09T01:43:36.361Z,10.01
2017-09-09T01:46:04.183Z,10.12
2017-09-09T01:48:31.882Z,9.98
2017-09-09T01:50:59.583Z,9.96
2017-09-09T01:53:27.431Z,9.89
2017-09-09T01:55:55.153Z,9.88
2017-09-09T01:58:22.876Z,9.83
2017-09-09T02:00:50.652Z,9.79
2017-09-09T02:03:18.389Z,9.78
2017-09-09T02:05:46.085Z,9.85
2017-09-09T02:08:13.828Z,9.84
2017-09-09T02:10:41.496Z,9.93
2017-09-09T02:13:09.264Z,9.92
2017-09-09T02:15:37.075Z,9.73
2017-09-09T02:18:04.780Z,9.71
2017-09-09T02:20:32.604Z,9.70
2017-09-09T02:23:00.368Z,9.71
2017-09-09T02:25:28.119Z,9.64
2017-09-09T02:27:55.897Z,9.55
2017-09-09T02:30:23.598Z,9.50
2017-09-09T02:32:51.325Z,9.52
2017-09-09T02:35:19.020Z,9.47
2017-09-09T02:37:46.764Z,9.43
2017-09-09T02:40:14.497Z,9.36
2017-09-09T02:42:42.192Z,9.36
2017-09-09T02:45:09.978Z,9.36
2017-09-09T02:47:37.697Z,9.43
2017-09-09T02:50:05.412Z,9.39
2017-09-09T02:52:33.103Z,9.32
2017-09-09T02:55:00.850Z,9.27
2017-09-09T02:57:29.609Z,9.42
2017-09-09T02:59:57.352Z,9.39
2017-09-09T03:02:25.120Z,9.25
2017-09-09T03:04:52.835Z,9.21
2017-09-09T03:07:20.517Z,9.23
2017-09-09T03:09:48.314Z,9.24
2017-09-09T03:12:16.017Z,9.26
2017-09-09T03:14:43.755Z,9.29
2017-09-09T03:17:11.490Z,9.23
2017-09-09T03:19:39.276Z,9.26
2017-09-09T03:22:06.997Z,9.28
2017-09-09T03:24:34.700Z,9.35
2017-09-09T03:27:02.491Z,9.32
2017-09-09T03:29:30.169Z,9.17
2017-09-09T03:31:57.965Z,9.12
2017-09-09T03:34:25.642Z,9.13
2017-09-09T03:36:53.357Z,9.18
2017-09-09T03:39:21.100Z,9.03
2017-09-09T03:41:48.789Z,9.03
2017-09-09T03:44:16.539Z,8.93
2017-09-09T03:46:44.265Z,8.97
2017-09-09T03:49:11.989Z,9.01
2017-09-09T03:51:39.725Z,9.08
2017-09-09T03:54:07.417Z,8.95
2017-09-09T03:56:35.212Z,8.96
2017-09-09T03:59:02.929Z,8.87
2017-09-09T04:01:30.618Z,9.04
2017-09-09T04:03:58.383Z,8.95
2017-09-09T04:06:26.289Z,8.89
2017-09-09T04:08:54.048Z,8.88
2017-09-09T04:11:21.844Z,8.75
2017-09-09T04:13:49.689Z,8.94
2017-09-09T04:16:17.401Z,8.69
2017-09-09T04:18:45.080Z,8.73
2017-09-09T04:21:12.853Z,9.00
2017-09-09T04:23:40.566Z,8.81
2017-09-09T04:26:08.259Z,8.87
2017-09-09T04:28:36.005Z,8.85
2017-09-09T04:31:03.695Z,8.91
2017-09-09T04:33:31.462Z,8.58
2017-09-09T04:35:59.158Z,8.55
2017-09-09T04:38:26.906Z,8.57
2017-09-09T04:40:54.585Z,8.59
2017-09-09T04:43:22.403Z,8.48
2017-09-09T04:45:50.143Z,8.25
2017-09-09T04:48:17.903Z,8.30
2017-09-09T04:50:45.703Z,8.38
2017-09-09T04:53:13.405Z,8.35
2017-09-09T04:55:41.299Z,8.37
2017-09-09T04:58:09.088Z,8.36
2017-09-09T05:00:36.891Z,8.52
2017-09-09T05:03:04.693Z,8.72
2017-09-09T05:05:32.466Z,8.34
2017-09-09T05:08:00.234Z,8.47
2017-09-09T05:10:28.065Z,8.47
2017-09-09T05:12:55.827Z,8.42
2017-09-09T05:15:23.530Z,8.28
2017-09-09T05:17:51.252Z,8.60
2017-09-09T05:20:19.026Z,8.70
2017-09-09T05:22:46.780Z,8.60
2017-09-09T05:25:14.532Z,8.82
2017-09-09T05:27:42.313Z,8.98
2017-09-09T05:30:10.115Z,9.29
2017-09-09T05:32:37.913Z,9.34
2017-09-09T05:35:05.711Z,9.27
2017-09-09T05:37:33.614Z,8.91
2017-09-09T05:40:01.714Z,9.02
2017-09-09T05:42:29.598Z,9.06
2017-09-09T05:44:57.354Z,9.16
2017-09-09T05:47:27.104Z,9.30
2017-09-09T05:49:55.000Z,9.33
2017-09-09T05:52:22.814Z,9.43
2017-09-09T05:54:50.599Z,9.81
2017-09-09T05:57:18.361Z,10.04
2017-09-09T05:59:46.809Z,10.20
2017-09-09T06:02:16.038Z,10.42
2017-09-09T06:04:43.815Z,10.62
2017-09-09T06:07:11.635Z,10.84
2017-09-09T06:09:40.439Z,10.76
2017-09-09T06:12:13.838Z,10.72
2017-09-09T06:14:41.591Z,10.72
2017-09-09T06:17:10.246Z,10.88
2017-09-09T06:19:38.726Z,11.34
2017-09-09T06:22:07.210Z,11.71
2017-09-09T06:24:34.919Z,11.57
2017-09-09T06:27:04.129Z,11.19
2017-09-09T06:29:31.851Z,10.98
2017-09-09T06:31:59.605Z,11.49
2017-09-09T06:34:27.359Z,11.65
2017-09-09T06:36:55.077Z,11.56
2017-09-09T06:39:22.857Z,12.07
2017-09-09T06:41:50.566Z,12.39
2017-09-09T06:44:18.414Z,12.65
2017-09-09T06:46:46.313Z,12.65
2017-09-09T06:49:14.099Z,12.63
2017-09-09T06:51:41.900Z,12.86
2017-09-09T06:54:09.666Z,12.88
2017-09-09T06:56:38.035Z,13.16
2017-09-09T06:59:06.231Z,13.30
2017-09-09T07:01:34.034Z,12.93
2017-09-09T07:04:02.186Z,13.04
2017-09-09T07:06:29.951Z,13.26
2017-09-09T07:08:57.838Z,13.25
2017-09-09T07:11:25.642Z,13.43
2017-09-09T07:13:53.368Z,13.57
2017-09-09T07:16:21.141Z,13.60
2017-09-09T07:18:48.942Z,13.39
2017-09-09T07:21:16.665Z,13.58
2017-09-09T07:23:44.495Z,14.10
2017-09-09T07:26:12.237Z,14.42
2017-09-09T07:28:40.077Z,14.31
2017-09-09T07:31:07.858Z,14.59
2017-09-09T07:33:35.628Z,14.76
2017-09-09T07:36:03.446Z,14.82
2017-09-09T07:38:31.220Z,14.84
2017-09-09T07:40:58.946Z,15.17
2017-09-09T07:43:27.432Z,15.26
2017-09-09T07:45:55.183Z,15.91
2017-09-09T07:48:22.975Z,15.90
2017-09-09T07:50:50.750Z,15.70
2017-09-09T07:53:18.487Z,15.84
2017-09-09T07:55:46.325Z,15.92
2017-09-09T07:58:14.283Z,15.97
2017-09-09T08:00:42.158Z,15.65
2017-09-09T08:03:11.606Z,16.20
2017-09-09T08:05:39.974Z,16.77
2017-09-09T08:08:08.527Z,17.26
2017-09-09T08:10:36.478Z,17.43
2017-09-09T08:13:04.301Z,17.13
2017-09-09T08:15:32.068Z,17.26
2017-09-09T08:17:59.957Z,16.82
2017-09-09T08:20:27.698Z,17.44
2017-09-09T08:22:55.452Z,17.76
2017-09-09T08:25:23.555Z,18.05
2017-09-09T08:27:51.409Z,18.54
2017-09-09T08:30:20.383Z,18.83
2017-09-09T08:32:48.264Z,18.82
2017-09-09T08:35:16.060Z,18.08
2017-09-09T08:37:44.694Z,18.58
2017-09-09T08:40:12.474Z,18.93
2017-09-09T08:42:40.234Z,18.77
2017-09-09T08:45:07.998Z,19.02
2017-09-09T08:47:35.820Z,18.63
2017-09-09T08:50:03.555Z,18.85
2017-09-09T08:52:31.289Z,19.34
2017-09-09T08:54:59.123Z,19.48
2017-09-09T08:57:27.524Z,19.51
2017-09-09T08:59:55.270Z,19.45
2017-09-09T09:02:30.561Z,19.30
2017-09-09T09:05:00.471Z,19.35
2017-09-09T09:07:28.256Z,19.94
2017-09-09T09:09:56.074Z,19.47
2017-09-09T09:12:23.854Z,19.49
2017-09-09T09:14:51.699Z,19.73
2017-09-09T09:17:19.509Z,20.13
2017-09-09T09:19:47.271Z,20.36
2017-09-09T09:22:15.043Z,20.04
2017-09-09T09:24:42.820Z,19.71
2017-09-09T09:27:14.232Z,19.93
2017-09-09T09:29:56.525Z,20.08
2017-09-09T09:32:26.150Z,20.48
2017-09-09T09:34:55.412Z,20.77
2017-09-09T09:37:26.726Z,20.94
2017-09-09T09:39:56.093Z,20.77
2017-09-09T09:42:25.537Z,20.71
2017-09-09T09:44:56.669Z,20.81
2017-09-09T09:47:24.383Z,20.98
2017-09-09T09:49:52.673Z,21.42
2017-09-09T09:52:25.230Z,21.19
2017-09-09T09:54:57.294Z,21.24
2017-09-09T09:57:26.162Z,21.57
2017-09-09T09:59:55.812Z,21.06
2017-09-09T10:02:27.000Z,21.10
2017-09-09T10:04:59.246Z,21.74
2017-09-09T10:07:36.228Z,22.15
2017-09-09T10:10:43.178Z,22.59
2017-09-09T10:13:16.708Z,22.06
2017-09-09T10:15:49.136Z,22.21
2017-09-09T10:18:22.454Z,22.41
2017-09-09T10:21:01.520Z,22.35
2017-09-09T10:23:30.133Z,22.95
2017-09-09T10:25:58.375Z,22.73
2017-09-09T10:28:28.448Z,22.73
2017-09-09T10:30:56.413Z,22.54
2017-09-09T10:33:24.182Z,22.44
2017-09-09T10:35:52.398Z,22.58
2017-09-09T10:38:20.161Z,22.99
2017-09-09T10:40:47.909Z,23.00
2017-09-09T10:43:16.427Z,23.61
2017-09-09T10:45:46.689Z,23.20
2017-09-09T10:48:14.543Z,23.08
2017-09-09T10:50:42.597Z,23.52
2017-09-09T10:53:13.340Z,23.05
2017-09-09T10:55:42.161Z,23.60
2017-09-09T10:58:09.997Z,24.15
2017-09-09T11:00:37.773Z,24.29
2017-09-09T11:03:05.585Z,23.83
2017-09-09T11:05:33.811Z,23.67
2017-09-09T11:08:01.518Z,23.59
2017-09-09T11:10:30.271Z,23.46
2017-09-09T11:12:59.317Z,23.76
2017-09-09T11:15:27.037Z,23.87
2017-09-09T11:17:55.485Z,24.27
2017-09-09T11:20:24.710Z,23.88
2017-09-09T11:22:54.630Z,24.08
2017-09-09T11:25:23.972Z,23.76
2017-09-09T11:27:52.815Z,24.35
2017-09-09T11:30:20.611Z,24.49
2017-09-09T11:32:48.889Z,24.44
2017-09-09T11:35:24.444Z,24.28
2017-09-09T11:37:55.165Z,24.21
2017-09-09T11:40:25.040Z,24.52
2017-09-09T11:42:53.926Z,25.03
2017-09-09T11:45:22.369Z,25.08
2017-09-09T11:47:50.107Z,24.87
2017-09-09T11:50:17.900Z,25.28
2017-09-09T11:52:45.675Z,25.01
2017-09-09T11:55:13.852Z,25.13
2017-09-09T11:57:42.409Z,24.84
2017-09-09T12:00:10.214Z,24.66
2017-09-09T12:02:37.929Z,24.47
2017-09-09T12:05:05.722Z,24.52
2017-09-09T12:07:33.448Z,24.88
2017-09-09T12:10:01.248Z,24.98
2017-09-09T12:12:29.032Z,25.04
2017-09-09T12:14:56.785Z,25.08
2017-09-09T12:17:24.569Z,25.12
2017-09-09T12:19:53.356Z,24.87
2017-09-09T12:22:23.181Z,25.15
2017-09-09T12:24:50.919Z,25.21
2017-09-09T12:27:19.448Z,25.07
2017-09-09T12:29:48.155Z,25.11
2017-09-09T12:32:15.843Z,25.15
2017-09-09T12:34:43.554Z,25.26
2017-09-09T12:37:11.357Z,25.43
2017-09-09T12:39:39.515Z,25.43
2017-09-09T12:42:07.425Z,25.38
2017-09-09T12:44:35.165Z,25.23
2017-09-09T12:47:02.905Z,25.21
2017-09-09T12:49:30.744Z,24.71
2017-09-09T12:51:58.642Z,24.94
2017-09-09T12:54:26.456Z,25.22
2017-09-09T12:56:54.154Z,25.63
2017-09-09T12:59:22.919Z,25.56
2017-09-09T13:01:50.705Z,25.31
2017-09-09T13:04:18.509Z,25.39
2017-09-09T13:06:46.304Z,25.57
2017-09-09T13:09:14.186Z,25.37
2017-09-09T13:11:42.501Z,25.51
2017-09-09T13:14:10.199Z,25.85
2017-09-09T13:16:37.978Z,25.68
2017-09-09T13:19:07.233Z,25.64
2017-09-09T13:21:35.360Z,25.29
2017-09-09T13:24:04.305Z,25.39
2017-09-09T13:26:41.792Z,25.44
2017-09-09T13:29:12.297Z,25.58
2017-09-09T13:31:43.231Z,25.59
2017-09-09T13:34:13.877Z,25.85
2017-09-09T13:36:41.603Z,25.98
2017-09-09T13:39:10.725Z,25.94
2017-09-09T13:41:40.314Z,25.90
2017-09-09T13:44:08.096Z,25.80
2017-09-09T13:46:35.877Z,25.51
2017-09-09T13:49:03.825Z,25.54
2017-09-09T13:51:32.618Z,25.40
2017-09-09T13:54:00.413Z,25.78
2017-09-09T13:56:28.226Z,25.88
2017-09-09T13:58:55.975Z,25.41
2017-09-09T14:01:23.694Z,25.12
2017-09-09T14:03:51.542Z,25.27
2017-09-09T14:06:23.943Z,25.26
2017-09-09T14:08:53.536Z,25.38
2017-09-09T14:11:21.269Z,25.38
2017-09-09T14:13:51.023Z,25.47
2017-09-09T14:16:19.866Z,25.26
2017-09-09T14:18:51.258Z,25.05
2017-09-09T14:21:19.048Z,24.93
2017-09-09T14:23:49.374Z,24.76
2017-09-09T14:26:17.099Z,24.48
2017-09-09T14:28:44.930Z,24.48
2017-09-09T14:31:12.748Z,24.76
2017-09-09T14:33:40.473Z,24.74
2017-09-09T14:36:08.273Z,24.90
2017-09-09T14:38:36.042Z,24.95
2017-09-09T14:41:04.503Z,24.67
2017-09-09T14:43:32.363Z,24.80
2017-09-09T14:46:00.142Z,24.90
2017-09-09T14:48:28.043Z,24.92
2017-09-09T14:50:55.784Z,24.49
2017-09-09T14:53:24.530Z,24.41
2017-09-09T14:55:52.259Z,24.65
2017-09-09T14:58:20.025Z,24.63
2017-09-09T15:00:47.827Z,24.71
2017-09-09T15:03:15.566Z,24.72
2017-09-09T15:05:43.388Z,24.48
2017-09-09T15:08:11.907Z,24.52
2017-09-09T15:10:39.613Z,24.39
2017-09-09T15:13:07.384Z,24.11
2017-09-09T15:15:35.163Z,23.98
2017-09-09T15:18:03.739Z,23.89
2017-09-09T15:20:31.566Z,23.74
2017-09-09T15:22:59.319Z,23.46
2017-09-09T15:25:27.861Z,23.35
2017-09-09T15:27:55.854Z,23.21
2017-09-09T15:30:23.570Z,23.07
2017-09-09T15:32:52.239Z,23.06
2017-09-09T15:35:21.231Z,22.90
2017-09-09T15:37:49.696Z,22.71
2017-09-09T15:40:17.546Z,22.63
2017-09-09T15:42:45.357Z,22.64
2017-09-09T15:45:13.077Z,22.65
2017-09-09T15:47:40.996Z,22.62
2017-09-09T15:50:10.407Z,22.80
2017-09-09T15:52:38.158Z,22.65
2017-09-09T15:55:06.903Z,22.62
2017-09-09T15:57:34.647Z,22.57
2017-09-09T16:00:03.196Z,22.57
2017-09-09T16:02:31.044Z,22.58
2017-09-09T16:04:59.429Z,22.62
2017-09-09T16:07:28.256Z,22.37
2017-09-09T16:09:56.021Z,22.19
2017-09-09T16:12:23.765Z,22.09
2017-09-09T16:14:51.606Z,22.14
2017-09-09T16:17:19.308Z,22.07
2017-09-09T16:19:47.235Z,22.08
2017-09-09T16:22:14.983Z,21.99
2017-09-09T16:24:42.730Z,21.87
2017-09-09T16:27:10.569Z,21.87
2017-09-09T16:29:38.752Z,21.81
2017-09-09T16:32:06.475Z,21.82
2017-09-09T16:34:34.292Z,21.72
2017-09-09T16:37:02.084Z,21.59
2017-09-09T16:39:29.877Z,21.52
2017-09-09T16:41:57.730Z,21.35
2017-09-09T16:44:25.569Z,21.35
2017-09-09T16:46:53.402Z,21.17
2017-09-09T16:49:21.235Z,21.21
2017-09-09T16:51:49.011Z,21.19
2017-09-09T16:54:16.772Z,21.13
2017-09-09T16:56:47.517Z,21.13
2017-09-09T16:59:15.354Z,20.88
2017-09-09T17:01:43.077Z,20.60
2017-09-09T17:04:10.856Z,20.36
2017-09-09T17:06:39.341Z,20.53
2017-09-09T17:09:07.077Z,20.41
2017-09-09T17:11:34.815Z,20.30
2017-09-09T17:14:02.582Z,20.31
2017-09-09T17:16:31.596Z,20.10
2017-09-09T17:18:59.577Z,19.99
2017-09-09T17:21:27.413Z,19.77
2017-09-09T17:23:55.250Z,19.79
2017-09-09T17:26:23.886Z,19.74
2017-09-09T17:28:52.024Z,19.74
2017-09-09T17:31:19.863Z,19.52
2017-09-09T17:33:50.036Z,19.53
2017-09-09T17:36:17.812Z,19.45
2017-09-09T17:38:45.573Z,19.31
2017-09-09T17:41:14.548Z,19.17
2017-09-09T17:43:43.113Z,19.09
2017-09-09T17:46:10.903Z,19.24
2017-09-09T17:48:38.673Z,19.16
2017-09-09T17:51:06.486Z,18.72
2017-09-09T17:53:37.514Z,18.75
2017-09-09T17:56:06.411Z,18.62
2017-09-09T17:58:34.167Z,18.65
2017-09-09T18:01:01.959Z,18.65
2017-09-09T18:03:29.735Z,18.50
2017-09-09T18:05:58.325Z,18.47
2017-09-09T18:08:26.217Z,18.46
2017-09-09T18:10:54.045Z,18.16
2017-09-09T18:13:21.883Z,18.31
2017-09-09T18:15:50.498Z,18.25
2017-09-09T18:18:18.274Z,18.32
2017-09-09T18:20:48.233Z,18.12
2017-09-09T18:23:15.977Z,17.96
2017-09-09T18:25:44.553Z,17.93
2017-09-09T18:28:12.320Z,17.75
2017-09-09T18:30:40.103Z,17.76
2017-09-09T18:33:08.556Z,17.61
2017-09-09T18:35:36.567Z,17.57
2017-09-09T18:38:04.366Z,17.61
2017-09-09T18:40:32.111Z,17.42
2017-09-09T18:42:59.899Z,17.49
2017-09-09T18:45:27.657Z,17.47
2017-09-09T18:47:55.467Z,17.26
2017-09-09T18:50:24.186Z,17.39
2017-09-09T18:52:51.986Z,17.23
2017-09-09T18:55:19.936Z,17.05
2017-09-09T18:57:47.986Z,17.04
2017-09-09T19:00:15.839Z,17.06
2017-09-09T19:02:43.769Z,17.13
2017-09-09T19:05:11.695Z,16.87
2017-09-09T19:07:39.546Z,16.78
2017-09-09T19:10:07.447Z,16.81
2017-09-09T19:12:36.590Z,16.87
2017-09-09T19:24:14.927Z,16.58
2017-09-09T19:26:42.762Z,16.61
2017-09-09T19:29:10.634Z,16.74
2017-09-09T19:31:38.399Z,16.56
2017-09-09T19:34:06.157Z,16.56
2017-09-09T19:36:33.870Z,16.61
2017-09-09T19:39:02.689Z,16.47
2017-09-09T19:41:30.493Z,16.59
2017-09-09T19:43:58.390Z,16.41
2017-09-09T19:46:26.130Z,16.41
2017-09-09T19:48:53.975Z,16.29
2017-09-09T19:51:21.849Z,16.26
2017-09-09T19:53:49.761Z,16.25
2017-09-09T19:56:17.558Z,16.20
2017-09-09T19:58:45.678Z,16.05
2017-09-09T20:01:14.124Z,16.01
2017-09-09T20:03:41.921Z,16.01
2017-09-09T20:06:09.697Z,16.11
2017-09-09T20:08:38.000Z,15.95
2017-09-09T20:11:05.772Z,15.90
2017-09-09T20:13:34.654Z,15.85
2017-09-09T20:16:02.530Z,15.75
2017-09-09T20:18:34.063Z,15.74
2017-09-09T20:21:01.841Z,15.81
2017-09-09T20:23:29.748Z,15.89
2017-09-09T20:25:57.523Z,15.67
2017-09-09T20:28:26.176Z,15.56
2017-09-09T20:30:53.992Z,15.67
2017-09-09T20:33:21.794Z,15.62
2017-09-09T20:35:49.484Z,15.57
2017-09-09T20:38:17.255Z,15.49
2017-09-09T20:40:45.031Z,15.47
2017-09-09T20:43:12.795Z,15.53
2017-09-09T20:45:40.532Z,15.46
2017-09-09T20:48:09.097Z,15.40
2017-09-09T20:50:37.678Z,15.51
2017-09-09T20:53:05.523Z,15.39
2017-09-09T20:55:33.242Z,15.43
2017-09-09T20:58:01.056Z,15.38
2017-09-09T21:00:30.994Z,15.20
2017-09-09T21:02:59.026Z,15.22
2017-09-09T21:05:27.872Z,15.45
2017-09-09T21:07:55.598Z,15.37
2017-09-09T21:10:23.350Z,15.33
2017-09-09T21:12:51.190Z,15.35
2017-09-09T21:15:20.568Z,15.33
2017-09-09T21:17:48.308Z,15.24
2017-09-09T21:20:16.027Z,15.27
2017-09-09T21:22:44.484Z,15.26
2017-09-09T21:25:12.280Z,15.28
2017-09-09T21:27:41.058Z,15.31
2017-09-09T21:30:08.864Z,15.32
2017-09-09T21:32:36.620Z,15.32
2017-09-09T21:35:04.520Z,15.28
2017-09-09T21:37:32.325Z,15.16
2017-09-09T21:40:00.115Z,15.16
2017-09-09T21:42:27.845Z,15.07
2017-09-09T21:44:55.682Z,15.03
2017-09-09T21:47:23.494Z,14.81
2017-09-09T21:49:51.882Z,14.96
2017-09-09T21:52:20.369Z,14.99
2017-09-09T21:54:48.992Z,14.83
2017-09-09T21:57:19.290Z,14.77
2017-09-09T21:59:47.015Z,14.64
2017-09-09T22:02:14.808Z,14.89
2017-09-09T22:04:44.343Z,14.97
2017-09-09T22:07:12.119Z,14.99
2017-09-09T22:09:39.920Z,14.91
2017-09-09T22:12:07.661Z,14.92
2017-09-09T22:14:35.374Z,15.00
2017-09-09T22:17:04.305Z,15.08
2017-09-09T22:19:32.075Z,15.04
2017-09-09T22:21:59.852Z,14.88
2017-09-09T22:24:27.680Z,14.89
2017-09-09T22:26:55.402Z,15.01
2017-09-09T22:29:23.163Z,15.08
2017-09-09T22:31:50.949Z,15.09
2017-09-09T22:34:18.679Z,15.12
2017-09-09T22:36:46.613Z,15.10
2017-09-09T22:39:14.416Z,15.16
2017-09-09T22:41:42.244Z,15.18
2017-09-09T22:44:09.975Z,15.18
2017-09-09T22:46:37.817Z,15.53
2017-09-09T22:49:05.622Z,15.32
2017-09-09T22:51:33.419Z,15.24
2017-09-09T22:54:01.142Z,15.19
2017-09-09T22:56:28.892Z,15.18
2017-09-09T22:58:56.756Z,15.14
2017-09-09T23:01:24.572Z,15.20
2017-09-09T23:03:52.398Z,15.23
2017-09-09T23:06:20.070Z,15.20
2017-09-09T23:08:47.928Z,15.12
2017-09-09T23:11:16.399Z,15.05
2017-09-09T23:13:44.160Z,15.01
2017-09-09T23:16:11.990Z,14.91
2017-09-09T23:18:39.754Z,14.99
2017-09-09T23:21:07.530Z,14.93
2017-09-09T23:23:35.261Z,14.85
2017-09-09T23:26:03.042Z,14.81
2017-09-09T23:28:30.776Z,14.83
2017-09-09T23:30:58.483Z,14.96
2017-09-09T23:33:26.187Z,14.91
2017-09-09T23:35:54.031Z,14.91
2017-09-09T23:38:21.810Z,14.88
2017-09-09T23:40:49.653Z,15.10
2017-09-09T23:43:17.377Z,14.98
2017-09-09T23:45:45.086Z,14.91
2017-09-09T23:48:12.918Z,14.97
2017-09-09T23:50:40.659Z,15.03
2017-09-09T23:53:08.355Z,15.11
2017-09-09T23:55:36.229Z,15.13
2017-09-09T23:58:04.001Z,15.14
